createdAt,value
2018-08-09T00:01:18.468Z,86.63
2018-08-09T00:03:20.717Z,84.80
2018-08-09T00:05:22.949Z,83.67
2018-08-09T00:07:25.232Z,80.17
2018-08-09T00:09:27.516Z,75.42
2018-08-09T00:11:29.739Z,78.50
2018-08-09T00:13:32.028Z,74.65
2018-08-09T00:15:34.266Z,74.05
2018-08-09T00:17:36.506Z,68.75
2018-08-09T00:19:38.798Z,67.75
2018-08-09T00:21:41.068Z,69.90
2018-08-09T00:23:43.328Z,63.28
2018-08-09T00:25:45.606Z,64.80
2018-08-09T00:27:47.890Z,62.00
2018-08-09T00:29:50.132Z,62.53
2018-08-09T00:31:52.369Z,61.83
2018-08-09T00:33:54.632Z,59.65
2018-08-09T00:35:56.884Z,54.58
2018-08-09T00:37:59.119Z,52.75
2018-08-09T00:40:01.394Z,52.90
2018-08-09T00:42:03.627Z,52.35
2018-08-09T00:44:05.888Z,51.88
2018-08-09T00:46:08.169Z,50.17
2018-08-09T00:48:10.458Z,47.43
2018-08-09T00:50:12.698Z,47.50
2018-08-09T00:52:14.930Z,47.38
2018-08-09T00:54:17.217Z,46.13
2018-08-09T00:56:19.457Z,44.38
2018-08-09T00:58:21.695Z,42.83
2018-08-09T01:00:23.985Z,42.95
2018-08-09T01:02:26.233Z,44.35
2018-08-09T01:04:28.482Z,42.88
2018-08-09T01:06:30.766Z,44.40
2018-08-09T01:08:33.111Z,42.45
2018-08-09T01:10:35.405Z,38.65
2018-08-09T01:12:37.644Z,36.33
2018-08-09T01:14:39.885Z,37.90
2018-08-09T01:16:42.164Z,35.52
2018-08-09T01:18:44.449Z,34.95
2018-08-09T01:20:46.687Z,34.30
2018-08-09T01:22:48.933Z,34.78
2018-08-09T01:24:51.202Z,33.55
2018-08-09T01:26:53.437Z,32.30
2018-08-09T01:28:55.691Z,30.65
2018-08-09T01:30:57.972Z,31.80
2018-08-09T01:33:00.384Z,30.92
2018-08-09T01:35:02.622Z,28.60
2018-08-09T01:37:04.898Z,28.32
2018-08-09T01:39:07.139Z,28.52
2018-08-09T01:41:09.411Z,28.47
2018-08-09T01:43:11.661Z,27.73
2018-08-09T01:45:13.925Z,25.32
2018-08-09T01:47:16.205Z,25.77
2018-08-09T01:49:18.487Z,25.32
2018-08-09T01:51:20.737Z,24.90
2018-08-09T01:53:23.041Z,25.45
2018-08-09T01:55:25.285Z,23.30
2018-08-09T01:57:27.519Z,22.48
2018-08-09T01:59:29.787Z,23.22
2018-08-09T02:01:32.831Z,22.22
2018-08-09T02:03:35.077Z,21.93
2018-08-09T02:05:37.359Z,21.77
2018-08-09T02:07:39.602Z,21.23
2018-08-09T02:09:41.863Z,21.30
2018-08-09T02:11:44.133Z,19.62
2018-08-09T02:13:46.382Z,20.37
2018-08-09T02:15:48.675Z,19.40
2018-08-09T02:17:50.911Z,19.62
2018-08-09T02:19:53.155Z,18.60
2018-08-09T02:21:55.534Z,18.10
2018-08-09T02:23:57.781Z,18.23
2018-08-09T02:26:00.022Z,18.67
2018-08-09T02:28:02.297Z,16.62
2018-08-09T02:30:04.588Z,17.25
2018-08-09T02:32:06.823Z,16.60
2018-08-09T02:34:09.091Z,17.23
2018-08-09T02:36:11.358Z,16.32
2018-08-09T02:38:13.635Z,15.90
2018-08-09T02:40:15.903Z,15.63
2018-08-09T02:42:18.141Z,16.35
2018-08-09T02:44:20.414Z,15.20
2018-08-09T02:46:22.671Z,15.15
2018-08-09T02:48:24.911Z,14.87
2018-08-09T02:50:27.195Z,13.78
2018-08-09T02:52:29.467Z,14.65
2018-08-09T02:54:31.725Z,14.83
2018-08-09T02:56:34.041Z,14.30
2018-08-09T02:58:36.278Z,13.60
2018-08-09T03:00:38.532Z,12.53
2018-08-09T03:02:40.809Z,12.43
2018-08-09T03:04:43.049Z,12.37
2018-08-09T03:06:45.291Z,11.83
2018-08-09T03:08:47.581Z,12.70
2018-08-09T03:10:49.849Z,13.08
2018-08-09T03:12:52.092Z,12.07
2018-08-09T03:14:54.362Z,11.25
2018-08-09T03:16:56.606Z,11.63
2018-08-09T03:18:58.902Z,11.55
2018-08-09T03:21:01.156Z,11.08
2018-08-09T03:23:03.396Z,10.60
2018-08-09T03:25:05.668Z,11.97
2018-08-09T03:27:07.910Z,10.15
2018-08-09T03:29:10.155Z,11.05
2018-08-09T03:31:12.449Z,10.53
2018-08-09T03:33:14.726Z,10.00
2018-08-09T03:35:16.964Z,10.18
2018-08-09T03:37:19.254Z,10.10
2018-08-09T03:39:21.480Z,9.98
2018-08-09T03:41:23.748Z,9.78
2018-08-09T03:43:26.040Z,10.45
2018-08-09T03:45:28.319Z,10.38
2018-08-09T03:47:30.570Z,9.43
2018-08-09T03:49:32.840Z,9.60
2018-08-09T03:51:35.099Z,9.60
2018-08-09T03:53:37.376Z,9.05
2018-08-09T03:55:39.600Z,8.43
2018-08-09T03:57:41.834Z,8.70
2018-08-09T03:59:44.151Z,8.63
2018-08-09T04:01:46.384Z,8.55
2018-08-09T04:03:48.620Z,8.50
2018-08-09T04:05:50.858Z,8.33
2018-08-09T04:07:53.137Z,8.55
2018-08-09T04:09:55.424Z,8.03
2018-08-09T04:11:57.754Z,8.70
2018-08-09T04:13:59.960Z,7.12
2018-08-09T04:16:02.226Z,8.10
2018-08-09T04:18:04.488Z,7.30
2018-08-09T04:20:06.714Z,7.70
2018-08-09T04:22:08.970Z,8.28
2018-08-09T04:24:11.242Z,7.97
2018-08-09T04:26:13.473Z,7.95
2018-08-09T04:28:15.800Z,7.85
2018-08-09T04:30:18.028Z,7.40
2018-08-09T04:32:20.269Z,6.75
2018-08-09T04:34:22.546Z,7.70
2018-08-09T04:36:24.781Z,7.67
2018-08-09T04:38:27.008Z,7.58
2018-08-09T04:40:29.297Z,7.58
2018-08-09T04:42:31.529Z,6.80
2018-08-09T04:44:33.757Z,7.75
2018-08-09T04:46:36.033Z,6.95
2018-08-09T04:48:38.307Z,6.70
2018-08-09T04:50:40.535Z,6.97
2018-08-09T04:52:42.813Z,7.17
2018-08-09T04:54:45.043Z,6.70
2018-08-09T04:56:47.289Z,6.40
2018-08-09T04:58:49.541Z,7.60
2018-08-09T05:00:51.771Z,7.10
2018-08-09T05:02:54.014Z,6.67
2018-08-09T05:04:56.301Z,6.95
2018-08-09T05:06:58.528Z,6.95
2018-08-09T05:09:00.813Z,6.70
2018-08-09T05:11:03.061Z,6.55
2018-08-09T05:13:05.445Z,6.62
2018-08-09T05:15:07.665Z,6.62
2018-08-09T05:17:09.890Z,6.53
2018-08-09T05:19:12.173Z,6.33
2018-08-09T05:21:14.418Z,6.97
2018-08-09T05:23:16.753Z,6.40
2018-08-09T05:25:18.929Z,7.00
2018-08-09T05:27:21.170Z,6.12
2018-08-09T05:29:23.403Z,6.30
2018-08-09T05:31:25.680Z,6.62
2018-08-09T05:33:27.907Z,6.37
2018-08-09T05:35:30.183Z,6.50
2018-08-09T05:37:32.455Z,6.10
2018-08-09T05:39:34.701Z,5.87
2018-08-09T05:41:36.932Z,6.00
2018-08-09T05:43:39.196Z,6.53
2018-08-09T05:45:41.461Z,6.28
2018-08-09T05:47:43.710Z,5.62
2018-08-09T05:51:54.711Z,585.60
2018-08-09T05:53:56.991Z,36.85
2018-08-09T05:55:59.275Z,59.20
2018-08-09T05:58:01.521Z,120.75
2018-08-09T06:00:03.767Z,165.00
2018-08-09T06:02:06.038Z,111.57
2018-08-09T06:04:08.337Z,108.60
2018-08-09T06:06:10.625Z,141.10
2018-08-09T06:08:12.877Z,201.12
2018-08-09T06:10:15.137Z,226.60
2018-08-09T06:12:17.436Z,196.57
2018-08-09T06:14:19.703Z,228.67
2018-08-09T06:16:21.952Z,228.65
2018-08-09T06:18:24.257Z,222.60
2018-08-09T06:20:26.503Z,215.18
2018-08-09T06:22:28.810Z,226.45
2018-08-09T06:24:31.091Z,353.25
2018-08-09T06:26:33.337Z,119.20
2018-08-09T06:28:35.666Z,52.98
2018-08-09T06:30:37.904Z,61.50
2018-08-09T06:32:40.198Z,71.62
2018-08-09T06:34:42.470Z,63.92
2018-08-09T06:36:44.760Z,72.20
2018-08-09T06:38:46.998Z,37.42
2018-08-09T06:40:49.238Z,21.57
2018-08-09T06:42:51.520Z,17.77
2018-08-09T06:44:53.815Z,18.70
2018-08-09T06:46:56.064Z,15.55
2018-08-09T06:48:58.292Z,19.12
2018-08-09T06:51:00.557Z,14.35
2018-08-09T06:53:02.852Z,12.28
2018-08-09T06:55:05.128Z,11.95
2018-08-09T06:57:07.414Z,16.30
2018-08-09T06:59:09.702Z,15.28
2018-08-09T07:01:11.946Z,17.77
2018-08-09T07:03:14.221Z,20.97
2018-08-09T07:05:16.467Z,18.67
2018-08-09T07:07:18.749Z,16.05
2018-08-09T07:09:21.029Z,14.40
2018-08-09T07:11:23.288Z,48.83
2018-08-09T07:13:25.543Z,37.63
2018-08-09T07:15:27.849Z,26.48
2018-08-09T07:17:30.116Z,20.50
2018-08-09T07:19:32.402Z,20.88
2018-08-09T07:21:34.638Z,15.35
2018-08-09T07:23:36.927Z,14.87
2018-08-09T07:25:39.202Z,12.90
2018-08-09T07:27:41.482Z,12.47
2018-08-09T07:29:43.771Z,11.85
2018-08-09T07:31:46.070Z,17.80
2018-08-09T07:33:48.352Z,28.55
2018-08-09T07:35:50.588Z,29.48
2018-08-09T07:37:52.843Z,21.65
2018-08-09T07:39:55.130Z,17.98
2018-08-09T07:41:57.385Z,44.83
2018-08-09T07:43:59.662Z,33.13
2018-08-09T07:46:01.896Z,22.95
2018-08-09T07:48:04.135Z,23.25
2018-08-09T07:50:06.438Z,22.07
2018-08-09T07:52:08.645Z,68.57
2018-08-09T07:54:10.903Z,39.95
2018-08-09T07:56:13.150Z,28.45
2018-08-09T07:58:15.429Z,29.60
2018-08-09T08:00:17.685Z,24.77
2018-08-09T08:02:20.388Z,47.80
2018-08-09T08:04:22.668Z,36.35
2018-08-09T08:06:24.910Z,33.08
2018-08-09T08:08:27.238Z,27.87
2018-08-09T08:10:29.467Z,29.27
2018-08-09T08:12:31.710Z,26.45
2018-08-09T08:14:33.956Z,23.12
2018-08-09T08:16:36.258Z,19.55
2018-08-09T08:18:38.479Z,23.18
2018-08-09T08:20:40.812Z,17.60
2018-08-09T08:22:43.065Z,32.05
2018-08-09T08:24:45.325Z,30.55
2018-08-09T08:26:47.646Z,61.83
2018-08-09T08:28:49.895Z,41.45
2018-08-09T08:30:52.140Z,39.42
2018-08-09T08:32:54.380Z,50.78
2018-08-09T08:34:56.658Z,39.50
2018-08-09T08:36:58.910Z,37.55
2018-08-09T08:39:01.216Z,29.67
2018-08-09T08:41:03.472Z,55.65
2018-08-09T08:43:05.752Z,66.20
2018-08-09T08:45:08.010Z,58.90
2018-08-09T08:47:10.284Z,55.17
2018-08-09T08:49:12.592Z,111.57
2018-08-09T08:51:14.826Z,83.42
2018-08-09T08:53:17.946Z,46.10
2018-08-09T08:55:20.274Z,56.37
2018-08-09T08:57:22.475Z,68.42
2018-08-09T08:59:24.782Z,41.50
2018-08-09T09:01:27.010Z,58.20
2018-08-09T09:03:29.265Z,104.53
2018-08-09T09:05:31.552Z,73.07
2018-08-09T09:07:33.836Z,60.52
2018-08-09T09:09:36.121Z,57.05
2018-08-09T09:11:38.362Z,61.53
2018-08-09T09:13:40.626Z,47.23
2018-08-09T09:15:42.899Z,63.35
2018-08-09T09:17:45.177Z,84.97
2018-08-09T09:19:47.419Z,48.65
2018-08-09T09:21:49.687Z,33.25
2018-08-09T09:23:51.954Z,29.15
2018-08-09T09:25:54.197Z,35.73
2018-08-09T09:27:56.468Z,24.10
2018-08-09T09:29:58.737Z,24.43
2018-08-09T09:32:01.006Z,17.95
2018-08-09T09:34:03.247Z,77.65
2018-08-09T09:36:05.529Z,46.80
2018-08-09T09:38:07.769Z,33.80
2018-08-09T09:40:10.065Z,25.82
2018-08-09T09:42:12.309Z,26.10
2018-08-09T09:44:14.561Z,19.45
2018-08-09T09:46:16.839Z,19.45
2018-08-09T09:48:19.094Z,16.73
2018-08-09T09:50:21.327Z,13.83
2018-08-09T09:52:23.613Z,38.33
2018-08-09T09:54:25.905Z,42.20
2018-08-09T09:56:28.151Z,28.07
2018-08-09T09:58:30.382Z,34.38
2018-08-09T10:00:32.672Z,20.50
2018-08-09T10:02:34.961Z,17.75
2018-08-09T10:04:37.251Z,22.00
2018-08-09T10:06:39.492Z,18.50
2018-08-09T10:08:41.792Z,15.28
2018-08-09T10:10:44.025Z,18.87
2018-08-09T10:12:46.271Z,18.98
2018-08-09T10:14:48.563Z,15.72
2018-08-09T10:16:50.813Z,16.12
2018-08-09T10:18:53.053Z,48.55
2018-08-09T10:20:55.343Z,39.35
2018-08-09T10:22:57.582Z,38.80
2018-08-09T10:24:59.821Z,30.00
2018-08-09T10:27:02.114Z,21.70
2018-08-09T10:29:04.365Z,17.95
2018-08-09T10:31:06.705Z,55.95
2018-08-09T10:33:08.966Z,55.23
2018-08-09T10:35:11.216Z,45.95
2018-08-09T10:37:13.536Z,32.67
2018-08-09T10:39:15.757Z,19.32
2018-08-09T10:41:17.999Z,22.75
2018-08-09T10:43:20.279Z,20.92
2018-08-09T10:45:22.617Z,17.87
2018-08-09T10:47:24.854Z,18.07
2018-08-09T10:49:27.141Z,16.62
2018-08-09T10:51:29.391Z,13.98
2018-08-09T10:53:31.666Z,9.55
2018-08-09T10:55:33.945Z,10.55
2018-08-09T10:57:36.197Z,28.65
2018-08-09T10:59:38.481Z,31.65
2018-08-09T11:01:40.769Z,37.98
2018-08-09T11:03:43.007Z,26.62
2018-08-09T11:05:45.238Z,23.62
2018-08-09T11:07:47.486Z,17.10
2018-08-09T11:09:49.766Z,15.13
2018-08-09T11:11:52.043Z,14.70
2018-08-09T11:13:54.654Z,58.78
2018-08-09T11:15:56.877Z,68.20
2018-08-09T11:17:59.142Z,68.95
2018-08-09T11:20:01.464Z,63.20
2018-08-09T11:22:03.712Z,52.25
2018-08-09T11:24:05.986Z,40.73
2018-08-09T11:26:08.266Z,31.97
2018-08-09T11:28:10.491Z,33.50
2018-08-09T11:30:12.780Z,22.30
2018-08-09T11:32:15.027Z,25.50
2018-08-09T11:34:17.323Z,27.22
2018-08-09T11:36:19.566Z,38.78
2018-08-09T11:38:21.861Z,43.40
2018-08-09T11:40:24.094Z,38.73
2018-08-09T11:42:26.379Z,35.23
2018-08-09T11:44:28.606Z,27.50
2018-08-09T11:46:30.860Z,31.15
2018-08-09T11:48:33.112Z,23.38
2018-08-09T11:50:35.413Z,20.68
2018-08-09T11:54:07.910Z,24.43
2018-08-09T11:56:09.909Z,21.50
2018-08-09T11:58:11.904Z,18.45
2018-08-09T12:00:13.908Z,40.17
2018-08-09T12:02:15.918Z,115.52
2018-08-09T12:04:17.945Z,74.70
2018-08-09T12:06:19.967Z,142.62
2018-08-09T12:08:21.937Z,124.67
2018-08-09T12:10:23.966Z,56.23
2018-08-09T12:12:26.083Z,42.93
2018-08-09T12:14:28.111Z,42.27
2018-08-09T12:16:30.123Z,41.40
2018-08-09T12:18:32.099Z,36.75
2018-08-09T12:20:34.108Z,44.40
2018-08-09T12:22:36.383Z,32.25
2018-08-09T12:24:38.340Z,25.43
2018-08-09T12:26:40.366Z,26.77
2018-08-09T12:28:42.332Z,23.50
2018-08-09T12:30:44.328Z,27.87
2018-08-09T12:32:46.327Z,48.75
2018-08-09T12:34:48.310Z,88.75
2018-08-09T12:36:50.288Z,73.40
2018-08-09T12:38:52.306Z,114.85
2018-08-09T12:40:54.286Z,69.37
2018-08-09T12:42:56.275Z,49.18
2018-08-09T12:44:58.264Z,51.53
2018-08-09T12:47:00.247Z,66.53
2018-08-09T12:49:02.233Z,69.32
2018-08-09T12:51:04.237Z,27.75
2018-08-09T12:53:06.248Z,45.43
2018-08-09T12:55:08.229Z,84.83
2018-08-09T12:57:10.253Z,136.30
2018-08-09T12:59:12.301Z,94.10
2018-08-09T13:01:14.297Z,67.50
2018-08-09T13:03:16.259Z,68.65
2018-08-09T13:05:18.301Z,62.53
2018-08-09T13:07:20.312Z,62.98
2018-08-09T13:09:22.413Z,51.10
2018-08-09T13:11:24.425Z,55.67
2018-08-09T13:13:26.389Z,53.52
2018-08-09T13:15:28.397Z,49.73
2018-08-09T13:17:30.370Z,49.83
2018-08-09T13:19:32.355Z,43.80
2018-08-09T13:21:34.363Z,38.73
2018-08-09T13:23:36.349Z,31.77
2018-08-09T13:25:38.350Z,37.60
2018-08-09T13:27:40.383Z,33.58
2018-08-09T13:29:42.419Z,30.72
2018-08-09T13:31:44.509Z,26.75
2018-08-09T13:33:46.577Z,29.25
2018-08-09T13:35:48.483Z,28.17
2018-08-09T13:37:50.527Z,32.63
2018-08-09T13:39:52.484Z,39.38
2018-08-09T13:41:54.475Z,39.67
2018-08-09T13:43:56.496Z,43.08
2018-08-09T13:45:58.518Z,55.17
2018-08-09T13:48:00.533Z,66.77
2018-08-09T13:50:02.518Z,56.75
2018-08-09T13:52:04.544Z,48.30
2018-08-09T13:54:06.555Z,50.52
2018-08-09T13:56:08.563Z,39.08
2018-08-09T13:58:10.571Z,48.65
2018-08-09T14:00:12.589Z,40.15
2018-08-09T14:02:14.567Z,32.83
2018-08-09T14:04:16.599Z,40.80
2018-08-09T14:06:18.571Z,34.92
2018-08-09T14:08:20.595Z,36.88
2018-08-09T14:10:22.625Z,22.40
2018-08-09T14:12:24.681Z,23.12
2018-08-09T14:14:26.699Z,26.55
2018-08-09T14:16:28.741Z,22.87
2018-08-09T14:18:30.719Z,30.40
2018-08-09T14:20:32.745Z,24.67
2018-08-09T14:22:34.725Z,21.55
2018-08-09T14:24:36.747Z,22.07
2018-08-09T14:26:38.709Z,25.70
2018-08-09T14:28:40.739Z,28.32
2018-08-09T14:30:42.724Z,22.82
2018-08-09T14:32:44.753Z,27.27
2018-08-09T14:34:46.757Z,45.12
2018-08-09T14:36:48.769Z,58.35
2018-08-09T14:38:50.752Z,110.52
2018-08-09T14:40:52.782Z,193.43
2018-08-09T14:42:54.777Z,180.93
2018-08-09T14:44:56.788Z,169.20
2018-08-09T14:46:58.789Z,212.27
2018-08-09T14:49:00.795Z,179.78
2018-08-09T14:51:02.764Z,172.30
2018-08-09T14:53:04.781Z,175.62
2018-08-09T14:55:06.770Z,162.75
2018-08-09T14:57:08.789Z,157.47
2018-08-09T14:59:10.769Z,163.70
2018-08-09T15:01:13.767Z,150.62
2018-08-09T15:03:15.759Z,151.87
2018-08-09T15:05:17.789Z,151.57
2018-08-09T15:07:19.797Z,163.72
2018-08-09T15:09:21.825Z,235.32
2018-08-09T15:11:23.841Z,208.90
2018-08-09T15:13:25.813Z,199.50
2018-08-09T15:15:27.820Z,211.10
2018-08-09T15:17:29.862Z,214.45
2018-08-09T15:19:31.847Z,272.02
2018-08-09T15:21:33.849Z,264.55
2018-08-09T15:23:35.849Z,285.93
2018-08-09T15:25:37.873Z,236.10
2018-08-09T15:27:39.919Z,214.25
2018-08-09T15:29:41.919Z,232.67
2018-08-09T15:31:43.907Z,219.30
2018-08-09T15:33:45.932Z,195.03
2018-08-09T15:35:47.931Z,207.35
2018-08-09T15:37:49.947Z,211.25
2018-08-09T15:39:51.971Z,196.90
2018-08-09T15:41:54.002Z,205.12
2018-08-09T15:43:56.049Z,103.87
2018-08-09T15:45:58.057Z,25.85
2018-08-09T15:48:00.038Z,12.88
2018-08-09T15:50:02.033Z,7.75
2018-08-09T15:52:04.029Z,7.97
2018-08-09T15:54:06.024Z,6.67
2018-08-09T15:56:08.008Z,7.78
2018-08-09T15:58:10.040Z,21.55
2018-08-09T16:00:12.028Z,320.97
2018-08-09T16:02:14.115Z,45.00
2018-08-09T16:04:16.067Z,19.15
2018-08-09T16:06:18.036Z,7.90
2018-08-09T16:08:20.072Z,6.37
2018-08-09T16:10:22.079Z,5.85
2018-08-09T16:12:24.098Z,5.50
2018-08-09T16:14:26.080Z,4.97
2018-08-09T16:16:28.115Z,4.80
2018-08-09T16:18:30.069Z,4.17
2018-08-09T16:20:32.086Z,4.30
2018-08-09T16:22:34.070Z,4.75
2018-08-09T16:24:36.115Z,4.58
2018-08-09T16:26:38.099Z,5.15
2018-08-09T16:28:40.121Z,4.30
2018-08-09T16:30:42.153Z,4.80
2018-08-09T16:32:44.380Z,4.10
2018-08-09T16:34:46.390Z,4.75
2018-08-09T16:36:48.409Z,4.33
2018-08-09T16:38:50.378Z,4.70
2018-08-09T16:40:52.362Z,4.50
2018-08-09T16:42:54.385Z,5.45
2018-08-09T16:44:56.403Z,126.38
2018-08-09T16:46:58.372Z,159.67
2018-08-09T16:49:00.420Z,56.15
2018-08-09T16:51:02.410Z,25.90
2018-08-09T16:53:04.406Z,11.85
2018-08-09T16:55:06.374Z,10.80
2018-08-09T16:57:08.380Z,102.85
2018-08-09T16:59:10.365Z,131.97
2018-08-09T17:01:12.421Z,60.98
2018-08-09T17:03:14.487Z,29.48
2018-08-09T17:05:16.692Z,15.40
2018-08-09T17:07:18.912Z,10.80
2018-08-09T17:09:20.875Z,9.03
2018-08-09T17:11:22.907Z,7.00
2018-08-09T17:13:24.925Z,6.50
2018-08-09T17:15:27.208Z,6.08
2018-08-09T17:17:29.144Z,5.70
2018-08-09T17:19:31.457Z,22.22
2018-08-09T17:21:33.461Z,116.15
2018-08-09T17:23:35.494Z,78.78
2018-08-09T17:25:37.545Z,41.42
2018-08-09T17:27:39.739Z,25.37
2018-08-09T17:29:41.840Z,13.08
2018-08-09T17:31:43.815Z,8.40
2018-08-09T17:33:45.790Z,8.38
2018-08-09T17:35:47.805Z,6.65
2018-08-09T17:37:49.831Z,5.67
2018-08-09T17:39:51.809Z,13.08
2018-08-09T17:41:53.833Z,108.42
2018-08-09T17:43:55.892Z,152.70
2018-08-09T17:45:57.930Z,53.80
2018-08-09T17:47:59.925Z,29.87
2018-08-09T17:50:01.939Z,13.05
2018-08-09T17:52:03.955Z,12.33
2018-08-09T17:54:06.008Z,7.28
2018-08-09T17:56:08.029Z,118.72
2018-08-09T17:58:10.001Z,95.05
2018-08-09T18:00:12.001Z,45.70
2018-08-09T18:02:14.049Z,14.50
2018-08-09T18:04:16.029Z,6.65
2018-08-09T18:06:18.047Z,5.55
2018-08-09T18:08:20.076Z,3.65
2018-08-09T18:10:22.013Z,4.70
2018-08-09T18:12:24.062Z,7.22
2018-08-09T18:14:26.044Z,7.20
2018-08-09T18:16:28.034Z,6.30
2018-08-09T18:18:30.032Z,7.12
2018-08-09T18:20:32.031Z,7.28
2018-08-09T18:22:34.039Z,8.35
2018-08-09T18:24:36.047Z,11.75
2018-08-09T18:26:38.091Z,27.35
2018-08-09T18:28:40.105Z,41.90
2018-08-09T18:30:42.104Z,47.70
2018-08-09T18:32:44.128Z,76.72
2018-08-09T18:34:46.098Z,62.43
2018-08-09T18:36:48.081Z,69.77
2018-08-09T18:38:50.094Z,57.05
2018-08-09T18:40:52.133Z,70.70
2018-08-09T18:42:54.133Z,63.23
2018-08-09T18:44:56.155Z,59.05
2018-08-09T18:46:58.133Z,76.60
2018-08-09T18:49:00.182Z,80.70
2018-08-09T18:51:02.222Z,96.02
2018-08-09T18:53:04.222Z,106.27
2018-08-09T18:55:06.260Z,108.72
2018-08-09T18:57:08.294Z,159.60
2018-08-09T18:59:10.331Z,147.20
2018-08-09T19:01:12.321Z,137.10
2018-08-09T19:03:14.372Z,159.93
2018-08-09T19:05:16.372Z,143.65
2018-08-09T19:07:18.387Z,139.22
2018-08-09T19:09:20.409Z,161.90
2018-08-09T19:11:22.454Z,155.85
2018-08-09T19:13:24.592Z,138.52
2018-08-09T19:15:26.622Z,127.45
2018-08-09T19:17:28.686Z,183.45
2018-08-09T19:19:30.658Z,179.10
2018-08-09T19:21:32.690Z,187.53
2018-08-09T19:23:34.675Z,182.80
2018-08-09T19:25:36.700Z,167.85
2018-08-09T19:27:38.695Z,169.82
2018-08-09T19:29:40.719Z,154.23
2018-08-09T19:31:42.742Z,148.97
2018-08-09T19:33:44.780Z,172.35
2018-08-09T19:35:46.764Z,175.80
2018-08-09T19:37:48.783Z,225.35
2018-08-09T19:39:50.773Z,209.10
2018-08-09T19:41:52.786Z,239.10
2018-08-09T19:43:54.810Z,238.35
2018-08-09T19:45:56.838Z,207.35
2018-08-09T19:47:58.857Z,222.00
2018-08-09T19:50:00.823Z,219.32
2018-08-09T19:52:02.836Z,203.77
2018-08-09T19:54:04.885Z,163.10
2018-08-09T19:56:06.904Z,170.68
2018-08-09T19:58:08.891Z,164.13
2018-08-09T20:00:10.907Z,151.80
2018-08-09T20:02:12.897Z,170.92
2018-08-09T20:04:14.936Z,197.15
2018-08-09T20:06:16.974Z,259.70
2018-08-09T20:08:18.958Z,260.13
2018-08-09T20:10:20.924Z,238.55
2018-08-09T20:12:22.978Z,234.25
2018-08-09T20:14:24.964Z,215.40
2018-08-09T20:16:26.950Z,205.90
2018-08-09T20:18:29.010Z,243.70
2018-08-09T20:20:30.991Z,216.60
2018-08-09T20:22:32.995Z,198.13
2018-08-09T20:24:35.068Z,212.70
2018-08-09T20:26:37.091Z,209.40
2018-08-09T20:28:39.086Z,195.53
2018-08-09T20:30:41.105Z,176.07
2018-08-09T20:32:43.104Z,187.53
2018-08-09T20:34:45.124Z,179.30
2018-08-09T20:36:47.107Z,190.88
2018-08-09T20:38:49.096Z,157.62
2018-08-09T20:40:51.119Z,180.03
2018-08-09T20:42:53.139Z,167.50
2018-08-09T20:44:55.131Z,164.85
2018-08-09T20:46:57.143Z,226.70
2018-08-09T20:48:59.146Z,229.72
2018-08-09T20:51:01.178Z,244.15
2018-08-09T20:53:03.229Z,229.63
2018-08-09T20:55:05.222Z,227.95
2018-08-09T20:57:07.234Z,208.32
2018-08-09T20:59:09.226Z,209.43
2018-08-09T21:01:11.237Z,224.73
2018-08-09T21:03:13.260Z,234.30
2018-08-09T21:05:15.249Z,232.00
2018-08-09T21:07:17.227Z,259.25
2018-08-09T21:09:19.284Z,254.20
2018-08-09T21:11:21.290Z,265.00
2018-08-09T21:13:23.291Z,288.18
2018-08-09T21:15:25.350Z,277.40
2018-08-09T21:17:27.306Z,272.93
2018-08-09T21:19:29.345Z,345.73
2018-08-09T21:21:31.306Z,337.75
2018-08-09T21:23:33.315Z,317.52
2018-08-09T21:25:35.324Z,357.27
2018-08-09T21:27:37.285Z,342.95
2018-08-09T21:29:39.279Z,353.73
2018-08-09T21:31:41.307Z,346.48
2018-08-09T21:33:43.291Z,336.75
2018-08-09T21:35:45.334Z,306.17
2018-08-09T21:37:47.327Z,311.23
2018-08-09T21:39:49.309Z,325.68
2018-08-09T21:41:51.332Z,359.55
2018-08-09T21:43:53.313Z,323.62
2018-08-09T21:45:55.338Z,341.17
2018-08-09T21:47:57.333Z,326.75
2018-08-09T21:49:59.329Z,331.73
2018-08-09T21:52:01.360Z,343.82
2018-08-09T21:54:03.385Z,304.55
2018-08-09T21:56:05.405Z,280.83
2018-08-09T21:58:07.441Z,291.82
2018-08-09T22:00:09.436Z,257.20
2018-08-09T22:02:11.429Z,269.30
2018-08-09T22:04:13.457Z,250.50
2018-08-09T22:06:15.509Z,277.68
2018-08-09T22:08:17.481Z,316.77
2018-08-09T22:10:19.473Z,331.52
2018-08-09T22:12:21.515Z,318.05
2018-08-09T22:14:23.501Z,289.25
2018-08-09T22:16:25.505Z,291.40
2018-08-09T22:18:27.539Z,264.23
2018-08-09T22:20:29.535Z,284.35
2018-08-09T22:22:31.564Z,294.27
2018-08-09T22:24:33.563Z,294.05
2018-08-09T22:26:35.553Z,299.10
2018-08-09T22:28:37.590Z,298.25
2018-08-09T22:30:39.584Z,297.70
2018-08-09T22:32:41.564Z,290.62
2018-08-09T22:34:43.604Z,275.82
2018-08-09T22:36:45.599Z,270.05
2018-08-09T22:38:47.622Z,276.35
2018-08-09T22:40:49.616Z,281.13
2018-08-09T22:42:51.598Z,273.32
2018-08-09T22:44:53.604Z,270.95
2018-08-09T22:46:55.610Z,276.32
2018-08-09T22:48:57.606Z,261.90
2018-08-09T22:50:59.798Z,255.25
2018-08-09T22:53:01.772Z,255.27
2018-08-09T22:55:03.830Z,233.10
2018-08-09T22:57:05.878Z,251.20
2018-08-09T22:59:07.862Z,256.87
2018-08-09T23:01:10.164Z,247.52
2018-08-09T23:03:12.160Z,222.80
2018-08-09T23:05:14.223Z,225.05
2018-08-09T23:07:16.184Z,220.63
2018-08-09T23:09:18.200Z,215.28
2018-08-09T23:11:20.183Z,221.62
2018-08-09T23:13:22.163Z,217.70
2018-08-09T23:15:24.187Z,219.37
2018-08-09T23:17:26.210Z,209.98
2018-08-09T23:19:28.196Z,204.30
2018-08-09T23:21:30.200Z,199.17
2018-08-09T23:23:32.253Z,188.40
2018-08-09T23:25:34.240Z,178.07
2018-08-09T23:27:36.226Z,188.40
2018-08-09T23:29:38.254Z,185.52
2018-08-09T23:31:40.239Z,193.78
2018-08-09T23:33:42.218Z,180.45
2018-08-09T23:35:44.258Z,167.10
2018-08-09T23:37:46.234Z,180.00
2018-08-09T23:39:48.211Z,177.00
2018-08-09T23:41:50.266Z,179.00
2018-08-09T23:43:52.285Z,164.95
2018-08-09T23:45:54.291Z,161.80
2018-08-09T23:47:56.330Z,156.05
2018-08-09T23:49:58.312Z,154.25
2018-08-09T23:52:00.318Z,159.22
2018-08-09T23:54:02.295Z,155.18
2018-08-09T23:56:04.318Z,155.50
2018-08-09T23:58:06.301Z,143.90
